sensor_id;sensor_type;location;lat;lon;timestamp;P1;durP1;ratioP1;P2;durP2;ratioP2
32333;SDS011;18810;53.040;8.850;2023-07-29T00:01:31;45.13;;;23.98;;
32333;SDS011;18810;53.040;8.850;2023-07-29T00:03:57;42.67;;;26.70;;
32333;SDS011;18810;53.040;8.850;2023-07-29T00:06:23;41.45;;;27.52;;
32333;SDS011;18810;53.040;8.850;2023-07-29T00:08:49;39.97;;;25.38;;
32333;SDS011;18810;53.040;8.850;2023-07-29T00:11:15;36.60;;;23.90;;
32333;SDS011;18810;53.040;8.850;2023-07-29T00:13:40;36.47;;;23.17;;
32333;SDS011;18810;53.040;8.850;2023-07-29T00:16:06;34.83;;;23.95;;
32333;SDS011;18810;53.040;8.850;2023-07-29T00:18:32;35.55;;;22.77;;
32333;SDS011;18810;53.040;8.850;2023-07-29T00:20:58;33.63;;;22.60;;
32333;SDS011;18810;53.040;8.850;2023-07-29T00:23:23;36.63;;;23.33;;
32333;SDS011;18810;53.040;8.850;2023-07-29T00:25:49;37.60;;;25.13;;
32333;SDS011;18810;53.040;8.850;2023-07-29T00:28:15;45.63;;;26.25;;
32333;SDS011;18810;53.040;8.850;2023-07-29T00:30:40;62.28;;;30.95;;
32333;SDS011;18810;53.040;8.850;2023-07-29T00:33:06;53.78;;;30.85;;
32333;SDS011;18810;53.040;8.850;2023-07-29T00:35:32;41.55;;;26.92;;
32333;SDS011;18810;53.040;8.850;2023-07-29T00:37:57;57.50;;;29.95;;
32333;SDS011;18810;53.040;8.850;2023-07-29T00:40:23;44.10;;;26.60;;
32333;SDS011;18810;53.040;8.850;2023-07-29T00:42:49;46.42;;;26.75;;
32333;SDS011;18810;53.040;8.850;2023-07-29T00:45:15;53.75;;;30.35;;
32333;SDS011;18810;53.040;8.850;2023-07-29T00:47:41;43.47;;;26.75;;
32333;SDS011;18810;53.040;8.850;2023-07-29T00:50:08;66.63;;;31.33;;
32333;SDS011;18810;53.040;8.850;2023-07-29T00:52:35;56.72;;;31.60;;
32333;SDS011;18810;53.040;8.850;2023-07-29T00:55:00;72.68;;;34.17;;
32333;SDS011;18810;53.040;8.850;2023-07-29T00:57:26;59.33;;;31.38;;
32333;SDS011;18810;53.040;8.850;2023-07-29T00:59:53;68.97;;;34.20;;
32333;SDS011;18810;53.040;8.850;2023-07-29T01:02:19;50.40;;;30.15;;
32333;SDS011;18810;53.040;8.850;2023-07-29T01:04:45;57.00;;;29.60;;
32333;SDS011;18810;53.040;8.850;2023-07-29T01:12:26;76.65;;;35.78;;
32333;SDS011;18810;53.040;8.850;2023-07-29T01:17:46;67.72;;;33.80;;
32333;SDS011;18810;53.040;8.850;2023-07-29T01:20:14;69.25;;;36.00;;
32333;SDS011;18810;53.040;8.850;2023-07-29T01:22:40;75.40;;;34.40;;
32333;SDS011;18810;53.040;8.850;2023-07-29T01:25:07;78.55;;;36.30;;
32333;SDS011;18810;53.040;8.850;2023-07-29T01:27:33;77.80;;;36.97;;
32333;SDS011;18810;53.040;8.850;2023-07-29T01:29:59;77.72;;;36.70;;
32333;SDS011;18810;53.040;8.850;2023-07-29T01:35:33;73.63;;;37.00;;
32333;SDS011;18810;53.040;8.850;2023-07-29T01:38:47;65.50;;;33.85;;
32333;SDS011;18810;53.040;8.850;2023-07-29T01:40:58;55.55;;;33.53;;
32333;SDS011;18810;53.040;8.850;2023-07-29T01:43:28;73.60;;;36.58;;
32333;SDS011;18810;53.040;8.850;2023-07-29T01:45:55;83.20;;;36.72;;
32333;SDS011;18810;53.040;8.850;2023-07-29T01:48:21;77.60;;;35.92;;
32333;SDS011;18810;53.040;8.850;2023-07-29T01:50:47;71.40;;;36.10;;
32333;SDS011;18810;53.040;8.850;2023-07-29T01:53:12;58.85;;;32.22;;
32333;SDS011;18810;53.040;8.850;2023-07-29T01:55:38;54.85;;;29.98;;
32333;SDS011;18810;53.040;8.850;2023-07-29T01:58:04;58.25;;;32.00;;
32333;SDS011;18810;53.040;8.850;2023-07-29T02:00:30;62.58;;;32.83;;
32333;SDS011;18810;53.040;8.850;2023-07-29T02:02:56;56.63;;;31.85;;
32333;SDS011;18810;53.040;8.850;2023-07-29T02:05:22;51.72;;;30.38;;
32333;SDS011;18810;53.040;8.850;2023-07-29T02:07:47;68.25;;;35.70;;
32333;SDS011;18810;53.040;8.850;2023-07-29T02:10:13;73.97;;;35.80;;
32333;SDS011;18810;53.040;8.850;2023-07-29T02:12:39;71.63;;;37.00;;
32333;SDS011;18810;53.040;8.850;2023-07-29T02:15:04;74.68;;;35.20;;
32333;SDS011;18810;53.040;8.850;2023-07-29T02:17:31;75.68;;;36.80;;
32333;SDS011;18810;53.040;8.850;2023-07-29T02:19:57;75.78;;;36.22;;
32333;SDS011;18810;53.040;8.850;2023-07-29T02:22:22;81.75;;;36.80;;
32333;SDS011;18810;53.040;8.850;2023-07-29T02:24:48;82.75;;;37.97;;
32333;SDS011;18810;53.040;8.850;2023-07-29T02:27:14;79.38;;;38.03;;
32333;SDS011;18810;53.040;8.850;2023-07-29T02:29:39;75.40;;;38.08;;
32333;SDS011;18810;53.040;8.850;2023-07-29T02:32:05;80.65;;;38.47;;
32333;SDS011;18810;53.040;8.850;2023-07-29T02:34:31;86.10;;;39.35;;
32333;SDS011;18810;53.040;8.850;2023-07-29T02:36:56;72.82;;;37.20;;
32333;SDS011;18810;53.040;8.850;2023-07-29T02:39:22;83.88;;;38.60;;
32333;SDS011;18810;53.040;8.850;2023-07-29T02:41:48;76.93;;;39.85;;
32333;SDS011;18810;53.040;8.850;2023-07-29T02:44:15;102.43;;;44.22;;
32333;SDS011;18810;53.040;8.850;2023-07-29T02:46:40;99.38;;;42.78;;
32333;SDS011;18810;53.040;8.850;2023-07-29T02:49:06;74.47;;;38.28;;
32333;SDS011;18810;53.040;8.850;2023-07-29T02:51:32;77.93;;;41.25;;
32333;SDS011;18810;53.040;8.850;2023-07-29T02:53:58;83.28;;;39.67;;
32333;SDS011;18810;53.040;8.850;2023-07-29T02:56:24;86.22;;;40.10;;
32333;SDS011;18810;53.040;8.850;2023-07-29T02:58:49;90.35;;;40.72;;
32333;SDS011;18810;53.040;8.850;2023-07-29T03:01:16;80.53;;;41.70;;
32333;SDS011;18810;53.040;8.850;2023-07-29T03:03:42;92.50;;;41.65;;
32333;SDS011;18810;53.040;8.850;2023-07-29T03:06:08;86.85;;;39.92;;
32333;SDS011;18810;53.040;8.850;2023-07-29T03:08:35;91.28;;;40.90;;
32333;SDS011;18810;53.040;8.850;2023-07-29T03:11:05;94.75;;;41.17;;
32333;SDS011;18810;53.040;8.850;2023-07-29T03:13:32;100.63;;;42.60;;
32333;SDS011;18810;53.040;8.850;2023-07-29T03:16:08;84.50;;;38.92;;
32333;SDS011;18810;53.040;8.850;2023-07-29T03:18:38;79.80;;;40.23;;
32333;SDS011;18810;53.040;8.850;2023-07-29T03:21:04;85.43;;;41.65;;
32333;SDS011;18810;53.040;8.850;2023-07-29T03:23:31;78.43;;;40.97;;
32333;SDS011;18810;53.040;8.850;2023-07-29T03:26:01;108.07;;;44.17;;
32333;SDS011;18810;53.040;8.850;2023-07-29T03:28:30;89.88;;;42.20;;
32333;SDS011;18810;53.040;8.850;2023-07-29T03:30:58;81.63;;;40.22;;
32333;SDS011;18810;53.040;8.850;2023-07-29T03:33:24;90.43;;;39.92;;
32333;SDS011;18810;53.040;8.850;2023-07-29T03:35:51;104.03;;;42.47;;
32333;SDS011;18810;53.040;8.850;2023-07-29T03:38:17;80.32;;;39.25;;
32333;SDS011;18810;53.040;8.850;2023-07-29T03:40:43;106.90;;;43.42;;
32333;SDS011;18810;53.040;8.850;2023-07-29T03:43:09;84.90;;;38.35;;
32333;SDS011;18810;53.040;8.850;2023-07-29T03:45:35;89.72;;;40.92;;
32333;SDS011;18810;53.040;8.850;2023-07-29T03:48:02;65.18;;;34.25;;
32333;SDS011;18810;53.040;8.850;2023-07-29T03:50:28;114.80;;;42.50;;
32333;SDS011;18810;53.040;8.850;2023-07-29T03:52:54;77.03;;;37.25;;
32333;SDS011;18810;53.040;8.850;2023-07-29T03:55:20;78.45;;;36.45;;
32333;SDS011;18810;53.040;8.850;2023-07-29T03:57:46;97.55;;;39.42;;
32333;SDS011;18810;53.040;8.850;2023-07-29T04:00:12;64.22;;;31.77;;
32333;SDS011;18810;53.040;8.850;2023-07-29T04:02:38;93.03;;;37.38;;
32333;SDS011;18810;53.040;8.850;2023-07-29T04:05:04;85.07;;;39.30;;
32333;SDS011;18810;53.040;8.850;2023-07-29T04:07:30;63.03;;;31.42;;
32333;SDS011;18810;53.040;8.850;2023-07-29T04:09:56;65.45;;;33.85;;
32333;SDS011;18810;53.040;8.850;2023-07-29T04:12:25;74.10;;;34.83;;
32333;SDS011;18810;53.040;8.850;2023-07-29T04:14:51;66.45;;;34.92;;
32333;SDS011;18810;53.040;8.850;2023-07-29T04:17:17;69.18;;;36.40;;
32333;SDS011;18810;53.040;8.850;2023-07-29T04:19:42;73.35;;;34.97;;
32333;SDS011;18810;53.040;8.850;2023-07-29T04:22:08;65.50;;;34.90;;
32333;SDS011;18810;53.040;8.850;2023-07-29T04:24:34;57.60;;;31.02;;
32333;SDS011;18810;53.040;8.850;2023-07-29T04:26:59;65.75;;;33.50;;
32333;SDS011;18810;53.040;8.850;2023-07-29T04:29:25;54.53;;;28.92;;
32333;SDS011;18810;53.040;8.850;2023-07-29T04:31:51;65.35;;;33.72;;
32333;SDS011;18810;53.040;8.850;2023-07-29T04:34:17;57.80;;;30.83;;
32333;SDS011;18810;53.040;8.850;2023-07-29T04:36:44;61.35;;;30.20;;
32333;SDS011;18810;53.040;8.850;2023-07-29T04:39:12;63.75;;;33.03;;
32333;SDS011;18810;53.040;8.850;2023-07-29T04:41:38;60.38;;;29.77;;
32333;SDS011;18810;53.040;8.850;2023-07-29T04:44:04;73.13;;;32.22;;
32333;SDS011;18810;53.040;8.850;2023-07-29T04:46:30;54.25;;;28.85;;
32333;SDS011;18810;53.040;8.850;2023-07-29T04:48:55;61.72;;;31.27;;
32333;SDS011;18810;53.040;8.850;2023-07-29T04:51:21;58.30;;;29.15;;
32333;SDS011;18810;53.040;8.850;2023-07-29T04:53:47;63.47;;;34.25;;
32333;SDS011;18810;53.040;8.850;2023-07-29T04:56:13;72.60;;;35.28;;
32333;SDS011;18810;53.040;8.850;2023-07-29T04:58:39;50.85;;;27.35;;
32333;SDS011;18810;53.040;8.850;2023-07-29T05:01:06;68.10;;;33.35;;
32333;SDS011;18810;53.040;8.850;2023-07-29T05:03:32;72.75;;;35.22;;
32333;SDS011;18810;53.040;8.850;2023-07-29T05:05:58;79.63;;;34.22;;
32333;SDS011;18810;53.040;8.850;2023-07-29T05:08:24;74.28;;;33.90;;
32333;SDS011;18810;53.040;8.850;2023-07-29T05:10:53;69.43;;;33.90;;
32333;SDS011;18810;53.040;8.850;2023-07-29T05:13:22;47.38;;;28.02;;
32333;SDS011;18810;53.040;8.850;2023-07-29T05:15:48;60.33;;;30.40;;
32333;SDS011;18810;53.040;8.850;2023-07-29T05:18:14;49.35;;;27.92;;
32333;SDS011;18810;53.040;8.850;2023-07-29T05:20:40;58.72;;;31.80;;
32333;SDS011;18810;53.040;8.850;2023-07-29T05:23:06;43.50;;;26.65;;
32333;SDS011;18810;53.040;8.850;2023-07-29T05:25:31;46.60;;;28.17;;
32333;SDS011;18810;53.040;8.850;2023-07-29T05:27:59;45.22;;;25.23;;
32333;SDS011;18810;53.040;8.850;2023-07-29T05:30:25;44.38;;;27.55;;
32333;SDS011;18810;53.040;8.850;2023-07-29T05:32:52;42.38;;;26.30;;
32333;SDS011;18810;53.040;8.850;2023-07-29T05:35:17;42.08;;;26.25;;
32333;SDS011;18810;53.040;8.850;2023-07-29T05:37:43;32.97;;;23.55;;
32333;SDS011;18810;53.040;8.850;2023-07-29T05:40:09;39.13;;;24.90;;
32333;SDS011;18810;53.040;8.850;2023-07-29T05:42:35;41.20;;;26.05;;
32333;SDS011;18810;53.040;8.850;2023-07-29T05:45:00;39.42;;;24.65;;
32333;SDS011;18810;53.040;8.850;2023-07-29T05:47:26;41.35;;;25.92;;
32333;SDS011;18810;53.040;8.850;2023-07-29T05:49:52;38.22;;;24.02;;
32333;SDS011;18810;53.040;8.850;2023-07-29T05:52:18;38.08;;;25.63;;
32333;SDS011;18810;53.040;8.850;2023-07-29T05:54:44;38.13;;;24.88;;
32333;SDS011;18810;53.040;8.850;2023-07-29T05:57:10;41.53;;;25.80;;
32333;SDS011;18810;53.040;8.850;2023-07-29T05:59:36;39.70;;;25.90;;
32333;SDS011;18810;53.040;8.850;2023-07-29T06:02:02;38.55;;;25.88;;
32333;SDS011;18810;53.040;8.850;2023-07-29T06:04:28;39.92;;;25.17;;
32333;SDS011;18810;53.040;8.850;2023-07-29T06:06:54;44.00;;;27.25;;
32333;SDS011;18810;53.040;8.850;2023-07-29T06:09:20;39.10;;;26.50;;
32333;SDS011;18810;53.040;8.850;2023-07-29T06:11:50;36.40;;;25.58;;
32333;SDS011;18810;53.040;8.850;2023-07-29T06:14:16;40.38;;;27.25;;
32333;SDS011;18810;53.040;8.850;2023-07-29T06:16:42;40.28;;;27.42;;
32333;SDS011;18810;53.040;8.850;2023-07-29T06:19:07;45.67;;;28.15;;
32333;SDS011;18810;53.040;8.850;2023-07-29T06:21:34;40.08;;;28.67;;
32333;SDS011;18810;53.040;8.850;2023-07-29T06:24:00;38.88;;;27.10;;
32333;SDS011;18810;53.040;8.850;2023-07-29T06:26:26;40.83;;;28.27;;
32333;SDS011;18810;53.040;8.850;2023-07-29T06:28:51;42.65;;;28.70;;
32333;SDS011;18810;53.040;8.850;2023-07-29T06:31:17;38.95;;;28.13;;
32333;SDS011;18810;53.040;8.850;2023-07-29T06:33:43;46.63;;;30.73;;
32333;SDS011;18810;53.040;8.850;2023-07-29T06:36:08;41.05;;;30.40;;
32333;SDS011;18810;53.040;8.850;2023-07-29T06:38:34;44.35;;;30.02;;
32333;SDS011;18810;53.040;8.850;2023-07-29T06:40:59;40.47;;;29.65;;
32333;SDS011;18810;53.040;8.850;2023-07-29T06:43:25;42.95;;;30.15;;
32333;SDS011;18810;53.040;8.850;2023-07-29T06:45:51;40.20;;;29.35;;
32333;SDS011;18810;53.040;8.850;2023-07-29T06:48:16;45.05;;;30.60;;
32333;SDS011;18810;53.040;8.850;2023-07-29T06:50:43;43.63;;;30.38;;
32333;SDS011;18810;53.040;8.850;2023-07-29T06:53:09;39.92;;;29.98;;
32333;SDS011;18810;53.040;8.850;2023-07-29T06:55:35;38.50;;;28.60;;
32333;SDS011;18810;53.040;8.850;2023-07-29T06:58:00;41.15;;;28.88;;
32333;SDS011;18810;53.040;8.850;2023-07-29T07:00:27;39.78;;;29.83;;
32333;SDS011;18810;53.040;8.850;2023-07-29T07:02:52;36.17;;;27.95;;
32333;SDS011;18810;53.040;8.850;2023-07-29T07:05:18;36.88;;;27.92;;
32333;SDS011;18810;53.040;8.850;2023-07-29T07:07:43;36.25;;;26.58;;
32333;SDS011;18810;53.040;8.850;2023-07-29T07:10:09;33.30;;;26.13;;
32333;SDS011;18810;53.040;8.850;2023-07-29T07:12:35;32.38;;;25.58;;
32333;SDS011;18810;53.040;8.850;2023-07-29T07:15:00;31.30;;;25.52;;
32333;SDS011;18810;53.040;8.850;2023-07-29T07:17:26;32.63;;;25.50;;
32333;SDS011;18810;53.040;8.850;2023-07-29T07:19:52;31.88;;;24.00;;
32333;SDS011;18810;53.040;8.850;2023-07-29T07:22:17;32.08;;;23.48;;
32333;SDS011;18810;53.040;8.850;2023-07-29T07:24:43;29.58;;;23.42;;
32333;SDS011;18810;53.040;8.850;2023-07-29T07:27:09;26.65;;;20.80;;
32333;SDS011;18810;53.040;8.850;2023-07-29T07:29:35;26.08;;;20.75;;
32333;SDS011;18810;53.040;8.850;2023-07-29T07:32:00;23.05;;;19.38;;
32333;SDS011;18810;53.040;8.850;2023-07-29T07:34:26;27.33;;;20.50;;
32333;SDS011;18810;53.040;8.850;2023-07-29T07:36:52;23.35;;;19.17;;
32333;SDS011;18810;53.040;8.850;2023-07-29T07:39:17;19.90;;;17.00;;
32333;SDS011;18810;53.040;8.850;2023-07-29T07:41:43;26.02;;;19.10;;
32333;SDS011;18810;53.040;8.850;2023-07-29T07:44:08;22.95;;;17.70;;
32333;SDS011;18810;53.040;8.850;2023-07-29T07:46:35;21.70;;;16.80;;
32333;SDS011;18810;53.040;8.850;2023-07-29T07:49:01;22.65;;;18.05;;
32333;SDS011;18810;53.040;8.850;2023-07-29T07:51:27;21.42;;;16.67;;
32333;SDS011;18810;53.040;8.850;2023-07-29T07:53:52;22.45;;;16.73;;
32333;SDS011;18810;53.040;8.850;2023-07-29T07:56:18;21.63;;;17.65;;
32333;SDS011;18810;53.040;8.850;2023-07-29T07:58:43;20.20;;;16.77;;
32333;SDS011;18810;53.040;8.850;2023-07-29T08:01:09;22.80;;;15.85;;
32333;SDS011;18810;53.040;8.850;2023-07-29T08:03:36;21.55;;;16.42;;
32333;SDS011;18810;53.040;8.850;2023-07-29T08:06:02;18.00;;;15.25;;
32333;SDS011;18810;53.040;8.850;2023-07-29T08:08:28;20.25;;;16.90;;
32333;SDS011;18810;53.040;8.850;2023-07-29T08:10:54;17.90;;;15.10;;
32333;SDS011;18810;53.040;8.850;2023-07-29T08:13:21;18.83;;;15.43;;
32333;SDS011;18810;53.040;8.850;2023-07-29T08:15:48;17.50;;;13.65;;
32333;SDS011;18810;53.040;8.850;2023-07-29T08:18:15;13.82;;;12.13;;
32333;SDS011;18810;53.040;8.850;2023-07-29T08:20:41;15.70;;;12.52;;
32333;SDS011;18810;53.040;8.850;2023-07-29T08:23:06;13.95;;;12.02;;
32333;SDS011;18810;53.040;8.850;2023-07-29T08:25:32;14.15;;;11.20;;
32333;SDS011;18810;53.040;8.850;2023-07-29T08:27:58;12.82;;;10.75;;
32333;SDS011;18810;53.040;8.850;2023-07-29T08:30:23;13.23;;;9.48;;
32333;SDS011;18810;53.040;8.850;2023-07-29T08:32:49;13.75;;;9.65;;
32333;SDS011;18810;53.040;8.850;2023-07-29T08:35:15;10.60;;;7.20;;
32333;SDS011;18810;53.040;8.850;2023-07-29T08:37:40;6.45;;;5.80;;
32333;SDS011;18810;53.040;8.850;2023-07-29T08:40:06;7.65;;;6.32;;
32333;SDS011;18810;53.040;8.850;2023-07-29T08:42:32;8.07;;;6.10;;
32333;SDS011;18810;53.040;8.850;2023-07-29T08:45:01;18.38;;;6.28;;
32333;SDS011;18810;53.040;8.850;2023-07-29T08:47:32;10.10;;;6.47;;
32333;SDS011;18810;53.040;8.850;2023-07-29T08:49:58;7.57;;;5.10;;
32333;SDS011;18810;53.040;8.850;2023-07-29T08:52:26;7.50;;;5.70;;
32333;SDS011;18810;53.040;8.850;2023-07-29T08:54:52;7.47;;;6.30;;
32333;SDS011;18810;53.040;8.850;2023-07-29T08:57:18;6.45;;;5.18;;
32333;SDS011;18810;53.040;8.850;2023-07-29T08:59:45;7.80;;;5.25;;
32333;SDS011;18810;53.040;8.850;2023-07-29T09:02:11;7.07;;;5.10;;
32333;SDS011;18810;53.040;8.850;2023-07-29T09:04:36;7.80;;;5.40;;
32333;SDS011;18810;53.040;8.850;2023-07-29T09:07:02;6.57;;;4.80;;
32333;SDS011;18810;53.040;8.850;2023-07-29T09:09:29;8.13;;;5.30;;
32333;SDS011;18810;53.040;8.850;2023-07-29T09:11:55;8.27;;;5.35;;
32333;SDS011;18810;53.040;8.850;2023-07-29T09:14:21;7.88;;;5.00;;
32333;SDS011;18810;53.040;8.850;2023-07-29T09:16:48;6.72;;;5.57;;
32333;SDS011;18810;53.040;8.850;2023-07-29T09:19:14;8.00;;;5.53;;
32333;SDS011;18810;53.040;8.850;2023-07-29T09:21:40;7.35;;;5.80;;
32333;SDS011;18810;53.040;8.850;2023-07-29T09:24:06;6.55;;;5.75;;
32333;SDS011;18810;53.040;8.850;2023-07-29T09:26:33;7.80;;;6.32;;
32333;SDS011;18810;53.040;8.850;2023-07-29T09:28:59;6.10;;;5.50;;
32333;SDS011;18810;53.040;8.850;2023-07-29T09:31:25;7.05;;;6.30;;
32333;SDS011;18810;53.040;8.850;2023-07-29T09:33:58;7.82;;;6.70;;
32333;SDS011;18810;53.040;8.850;2023-07-29T09:36:25;7.82;;;6.60;;
32333;SDS011;18810;53.040;8.850;2023-07-29T09:38:55;8.05;;;7.25;;
32333;SDS011;18810;53.040;8.850;2023-07-29T09:41:30;9.98;;;7.43;;
32333;SDS011;18810;53.040;8.850;2023-07-29T09:44:00;6.72;;;5.90;;
32333;SDS011;18810;53.040;8.850;2023-07-29T09:46:37;9.55;;;7.18;;
32333;SDS011;18810;53.040;8.850;2023-07-29T09:49:06;7.43;;;6.72;;
32333;SDS011;18810;53.040;8.850;2023-07-29T09:51:37;8.35;;;6.30;;
32333;SDS011;18810;53.040;8.850;2023-07-29T09:54:04;5.55;;;5.05;;
32333;SDS011;18810;53.040;8.850;2023-07-29T09:56:30;5.22;;;4.70;;
32333;SDS011;18810;53.040;8.850;2023-07-29T09:58:56;4.93;;;4.40;;
32333;SDS011;18810;53.040;8.850;2023-07-29T10:01:24;5.63;;;4.10;;
32333;SDS011;18810;53.040;8.850;2023-07-29T10:03:50;5.03;;;4.53;;
32333;SDS011;18810;53.040;8.850;2023-07-29T10:06:16;5.03;;;4.00;;
32333;SDS011;18810;53.040;8.850;2023-07-29T10:08:43;5.85;;;4.00;;
32333;SDS011;18810;53.040;8.850;2023-07-29T10:11:10;3.83;;;3.53;;
32333;SDS011;18810;53.040;8.850;2023-07-29T10:13:37;3.78;;;3.47;;
32333;SDS011;18810;53.040;8.850;2023-07-29T10:16:03;3.90;;;3.50;;
32333;SDS011;18810;53.040;8.850;2023-07-29T10:18:30;4.90;;;3.70;;
32333;SDS011;18810;53.040;8.850;2023-07-29T10:20:57;4.50;;;3.55;;
32333;SDS011;18810;53.040;8.850;2023-07-29T10:23:24;3.83;;;3.45;;
32333;SDS011;18810;53.040;8.850;2023-07-29T10:25:57;4.90;;;3.58;;
32333;SDS011;18810;53.040;8.850;2023-07-29T10:28:32;3.90;;;3.47;;
32333;SDS011;18810;53.040;8.850;2023-07-29T10:30:59;4.43;;;3.83;;
32333;SDS011;18810;53.040;8.850;2023-07-29T10:33:25;9.18;;;4.05;;
32333;SDS011;18810;53.040;8.850;2023-07-29T10:35:51;3.60;;;3.30;;
32333;SDS011;18810;53.040;8.850;2023-07-29T10:38:19;4.07;;;3.67;;
32333;SDS011;18810;53.040;8.850;2023-07-29T10:40:52;4.03;;;3.53;;
32333;SDS011;18810;53.040;8.850;2023-07-29T10:43:33;4.32;;;3.88;;
32333;SDS011;18810;53.040;8.850;2023-07-29T10:48:51;4.15;;;3.80;;
32333;SDS011;18810;53.040;8.850;2023-07-29T10:51:28;4.15;;;3.85;;
32333;SDS011;18810;53.040;8.850;2023-07-29T10:54:13;4.00;;;3.60;;
32333;SDS011;18810;53.040;8.850;2023-07-29T10:56:40;4.68;;;4.18;;
32333;SDS011;18810;53.040;8.850;2023-07-29T11:01:45;4.72;;;4.05;;
32333;SDS011;18810;53.040;8.850;2023-07-29T11:04:26;4.35;;;3.95;;
32333;SDS011;18810;53.040;8.850;2023-07-29T11:20:06;2.73;;;2.53;;
32333;SDS011;18810;53.040;8.850;2023-07-29T11:22:35;3.38;;;3.00;;
32333;SDS011;18810;53.040;8.850;2023-07-29T11:25:02;3.17;;;2.90;;
32333;SDS011;18810;53.040;8.850;2023-07-29T11:27:28;3.30;;;2.85;;
32333;SDS011;18810;53.040;8.850;2023-07-29T11:29:57;3.78;;;3.45;;
32333;SDS011;18810;53.040;8.850;2023-07-29T11:32:24;3.38;;;3.08;;
32333;SDS011;18810;53.040;8.850;2023-07-29T11:34:50;3.40;;;3.20;;
32333;SDS011;18810;53.040;8.850;2023-07-29T11:37:16;3.47;;;2.80;;
32333;SDS011;18810;53.040;8.850;2023-07-29T11:39:43;3.95;;;2.83;;
32333;SDS011;18810;53.040;8.850;2023-07-29T11:42:10;3.63;;;3.03;;
32333;SDS011;18810;53.040;8.850;2023-07-29T11:44:36;3.30;;;3.00;;
32333;SDS011;18810;53.040;8.850;2023-07-29T11:47:05;3.53;;;3.20;;
32333;SDS011;18810;53.040;8.850;2023-07-29T11:49:35;3.03;;;2.72;;
32333;SDS011;18810;53.040;8.850;2023-07-29T11:52:03;2.90;;;2.70;;
32333;SDS011;18810;53.040;8.850;2023-07-29T11:54:30;3.28;;;2.97;;
32333;SDS011;18810;53.040;8.850;2023-07-29T11:56:56;2.90;;;2.60;;
32333;SDS011;18810;53.040;8.850;2023-07-29T11:59:22;3.65;;;3.05;;
32333;SDS011;18810;53.040;8.850;2023-07-29T12:01:48;3.33;;;2.90;;
32333;SDS011;18810;53.040;8.850;2023-07-29T12:04:14;3.55;;;2.55;;
32333;SDS011;18810;53.040;8.850;2023-07-29T12:06:40;3.53;;;2.38;;
32333;SDS011;18810;53.040;8.850;2023-07-29T12:09:06;3.38;;;2.95;;
32333;SDS011;18810;53.040;8.850;2023-07-29T12:11:34;2.80;;;2.60;;
32333;SDS011;18810;53.040;8.850;2023-07-29T12:14:00;2.90;;;2.65;;
32333;SDS011;18810;53.040;8.850;2023-07-29T12:16:26;2.95;;;2.63;;
32333;SDS011;18810;53.040;8.850;2023-07-29T12:18:52;2.67;;;2.42;;
32333;SDS011;18810;53.040;8.850;2023-07-29T12:21:20;2.70;;;2.42;;
32333;SDS011;18810;53.040;8.850;2023-07-29T12:23:46;2.88;;;2.50;;
32333;SDS011;18810;53.040;8.850;2023-07-29T12:26:12;2.97;;;2.38;;
32333;SDS011;18810;53.040;8.850;2023-07-29T12:28:37;3.17;;;2.33;;
32333;SDS011;18810;53.040;8.850;2023-07-29T12:31:06;3.17;;;1.92;;
32333;SDS011;18810;53.040;8.850;2023-07-29T12:33:36;3.28;;;1.77;;
32333;SDS011;18810;53.040;8.850;2023-07-29T12:36:07;3.10;;;1.90;;
32333;SDS011;18810;53.040;8.850;2023-07-29T12:38:32;2.08;;;1.83;;
32333;SDS011;18810;53.040;8.850;2023-07-29T12:40:58;2.55;;;2.20;;
32333;SDS011;18810;53.040;8.850;2023-07-29T12:43:24;2.50;;;2.15;;
32333;SDS011;18810;53.040;8.850;2023-07-29T12:45:50;2.45;;;1.77;;
32333;SDS011;18810;53.040;8.850;2023-07-29T12:48:17;3.55;;;2.40;;
32333;SDS011;18810;53.040;8.850;2023-07-29T12:50:42;2.38;;;2.17;;
32333;SDS011;18810;53.040;8.850;2023-07-29T12:53:08;3.50;;;2.22;;
32333;SDS011;18810;53.040;8.850;2023-07-29T12:55:37;3.15;;;2.10;;
32333;SDS011;18810;53.040;8.850;2023-07-29T12:58:03;3.47;;;2.00;;
32333;SDS011;18810;53.040;8.850;2023-07-29T13:00:29;2.33;;;2.05;;
32333;SDS011;18810;53.040;8.850;2023-07-29T13:02:55;2.65;;;2.00;;
32333;SDS011;18810;53.040;8.850;2023-07-29T13:05:21;3.28;;;2.28;;
32333;SDS011;18810;53.040;8.850;2023-07-29T13:07:47;3.80;;;2.20;;
32333;SDS011;18810;53.040;8.850;2023-07-29T13:10:13;2.40;;;1.98;;
32333;SDS011;18810;53.040;8.850;2023-07-29T13:12:39;4.05;;;2.20;;
32333;SDS011;18810;53.040;8.850;2023-07-29T13:15:05;4.63;;;2.03;;
32333;SDS011;18810;53.040;8.850;2023-07-29T13:17:32;3.03;;;2.00;;
32333;SDS011;18810;53.040;8.850;2023-07-29T13:19:58;2.45;;;2.13;;
32333;SDS011;18810;53.040;8.850;2023-07-29T13:22:24;2.03;;;1.83;;
32333;SDS011;18810;53.040;8.850;2023-07-29T13:24:49;2.55;;;1.83;;
32333;SDS011;18810;53.040;8.850;2023-07-29T13:27:15;2.35;;;1.77;;
32333;SDS011;18810;53.040;8.850;2023-07-29T13:29:41;2.25;;;2.05;;
32333;SDS011;18810;53.040;8.850;2023-07-29T13:32:09;2.33;;;1.98;;
32333;SDS011;18810;53.040;8.850;2023-07-29T13:34:35;2.80;;;2.00;;
32333;SDS011;18810;53.040;8.850;2023-07-29T13:37:01;2.33;;;1.80;;
32333;SDS011;18810;53.040;8.850;2023-07-29T13:39:27;2.97;;;2.15;;
32333;SDS011;18810;53.040;8.850;2023-07-29T13:41:52;2.60;;;1.85;;
32333;SDS011;18810;53.040;8.850;2023-07-29T13:44:18;1.90;;;1.70;;
32333;SDS011;18810;53.040;8.850;2023-07-29T13:46:44;2.30;;;2.00;;
32333;SDS011;18810;53.040;8.850;2023-07-29T13:49:10;3.50;;;1.98;;
32333;SDS011;18810;53.040;8.850;2023-07-29T13:51:36;4.95;;;2.20;;
32333;SDS011;18810;53.040;8.850;2023-07-29T13:54:02;1.98;;;1.77;;
32333;SDS011;18810;53.040;8.850;2023-07-29T13:56:27;2.55;;;1.80;;
32333;SDS011;18810;53.040;8.850;2023-07-29T13:58:53;3.40;;;2.03;;
32333;SDS011;18810;53.040;8.850;2023-07-29T14:01:18;2.17;;;1.98;;
32333;SDS011;18810;53.040;8.850;2023-07-29T14:03:44;5.32;;;1.98;;
32333;SDS011;18810;53.040;8.850;2023-07-29T14:06:09;2.60;;;2.00;;
32333;SDS011;18810;53.040;8.850;2023-07-29T14:08:35;2.30;;;1.90;;
32333;SDS011;18810;53.040;8.850;2023-07-29T14:11:01;2.83;;;2.03;;
32333;SDS011;18810;53.040;8.850;2023-07-29T14:13:27;4.07;;;1.65;;
32333;SDS011;18810;53.040;8.850;2023-07-29T14:15:52;1.92;;;1.73;;
32333;SDS011;18810;53.040;8.850;2023-07-29T14:18:18;2.80;;;2.05;;
32333;SDS011;18810;53.040;8.850;2023-07-29T14:20:44;1.85;;;1.65;;
32333;SDS011;18810;53.040;8.850;2023-07-29T14:23:10;2.58;;;1.98;;
32333;SDS011;18810;53.040;8.850;2023-07-29T14:25:36;2.85;;;1.77;;
32333;SDS011;18810;53.040;8.850;2023-07-29T14:28:02;2.03;;;1.85;;
32333;SDS011;18810;53.040;8.850;2023-07-29T14:30:27;4.40;;;2.30;;
32333;SDS011;18810;53.040;8.850;2023-07-29T14:32:53;3.22;;;2.28;;
32333;SDS011;18810;53.040;8.850;2023-07-29T14:35:18;3.10;;;2.30;;
32333;SDS011;18810;53.040;8.850;2023-07-29T14:37:44;2.92;;;2.40;;
32333;SDS011;18810;53.040;8.850;2023-07-29T14:40:10;2.50;;;2.30;;
32333;SDS011;18810;53.040;8.850;2023-07-29T14:42:35;2.88;;;2.33;;
32333;SDS011;18810;53.040;8.850;2023-07-29T14:45:01;4.32;;;2.70;;
32333;SDS011;18810;53.040;8.850;2023-07-29T14:47:26;4.00;;;2.80;;
32333;SDS011;18810;53.040;8.850;2023-07-29T14:49:52;3.58;;;3.17;;
32333;SDS011;18810;53.040;8.850;2023-07-29T14:52:18;3.70;;;2.90;;
32333;SDS011;18810;53.040;8.850;2023-07-29T14:54:43;3.40;;;2.95;;
32333;SDS011;18810;53.040;8.850;2023-07-29T14:57:09;3.10;;;2.60;;
32333;SDS011;18810;53.040;8.850;2023-07-29T14:59:35;4.10;;;2.55;;